CheckWX is a tool to help pilots better visualize weather data.  It is not intended as a substitute for an official pre-flight weather briefing.

14:16:07 UTC

KOGS METAR
Ogdensburg International Airport
Ogdensburg, New York, USA
Current

21 mins ago

KOGS 221355Z AUTO VRB04KT 10SM OVC027 12/07 A3023 RMK AO2
Observed
Apr-22 @ 13:55 UTC
Wind
  • Variable at 4 KTS
Visibility
10 SM
Flight Rules
MVFR
Cloud Levels
  • Overcast at 2,700' AGL
Temperature
12°C / 54°F
Dewpoint
C / 45°F
Humidity
72%
Altimeter
30.23" Hg
Pressure
1023.72 hPa
Previous

41 mins ago

KOGS 221335Z AUTO 00000KT 10SM OVC027 12/08 A3023 RMK AO2
Observed
Apr-22 @ 13:35 UTC
Visibility
10 SM
Flight Rules
MVFR
Cloud Levels
  • Overcast at 2,700' AGL
Temperature
12°C / 54°F
Dewpoint
C / 46°F
Humidity
77%
Altimeter
30.23" Hg
Pressure
1023.72 hPa
Previous

1 hour ago

KOGS 221315Z AUTO VRB03KT 10SM BKN022 OVC028 11/08 A3023 RMK AO2
Observed
Apr-22 @ 13:15 UTC
Wind
  • Variable at 3 KTS
Visibility
10 SM
Flight Rules
MVFR
Cloud Levels
  • Broken at 2,200' AGL
  • Overcast at 2,800' AGL
Temperature
11°C / 52°F
Dewpoint
C / 46°F
Humidity
82%
Altimeter
30.23" Hg
Pressure
1023.72 hPa